createdAt,value
2023-08-14T00:07:35.048Z,7.63
2023-08-14T00:12:36.961Z,5.70
2023-08-14T00:22:40.502Z,5.13
2023-08-14T00:32:44.330Z,4.75
2023-08-14T00:37:47.984Z,4.72
2023-08-14T00:42:49.882Z,4.35
2023-08-14T00:52:55.413Z,4.68
2023-08-14T00:57:57.407Z,3.65
2023-08-14T01:02:59.426Z,4.00
2023-08-14T01:08:01.393Z,3.38
2023-08-14T01:18:29.912Z,3.70
2023-08-14T01:24:02.972Z,3.95
2023-08-14T01:29:04.912Z,3.95
2023-08-14T01:39:10.316Z,3.67
2023-08-14T01:44:13.237Z,4.63
2023-08-14T01:49:15.840Z,6.07
2023-08-14T01:54:17.812Z,4.80
2023-08-14T01:59:19.653Z,5.13
2023-08-14T02:09:23.457Z,2.80
2023-08-14T02:19:27.000Z,3.08
2023-08-14T02:29:30.521Z,2.70
2023-08-14T02:39:47.268Z,3.00
2023-08-14T02:49:50.849Z,4.72
2023-08-14T02:54:52.767Z,4.22
2023-08-14T03:04:56.528Z,3.30
2023-08-14T03:09:58.334Z,3.45
2023-08-14T03:15:00.282Z,3.40
2023-08-14T03:20:02.353Z,4.05
2023-08-14T03:25:05.541Z,3.45
2023-08-14T03:30:08.142Z,3.63
2023-08-14T03:35:10.168Z,3.33
2023-08-14T03:40:12.531Z,3.47
2023-08-14T03:45:14.576Z,4.05
2023-08-14T03:50:16.691Z,4.30
2023-08-14T03:55:18.703Z,4.28
2023-08-14T04:00:21.850Z,5.28
2023-08-14T04:10:25.584Z,4.07
2023-08-14T04:20:29.189Z,7.80
2023-08-14T04:30:32.943Z,5.38
2023-08-14T04:40:36.525Z,5.38
2023-08-14T04:50:40.204Z,5.00
2023-08-14T05:00:43.960Z,6.55
2023-08-14T05:05:51.479Z,8.50
2023-08-14T05:10:53.777Z,5.95
2023-08-14T05:16:07.163Z,5.90
2023-08-14T05:21:10.725Z,5.88
2023-08-14T05:26:12.604Z,6.47
2023-08-14T05:36:16.313Z,6.50
2023-08-14T05:46:19.940Z,6.15
2023-08-14T05:56:23.757Z,6.25
2023-08-14T06:01:25.800Z,6.07
2023-08-14T06:06:27.782Z,8.18
2023-08-14T06:16:31.505Z,8.85
2023-08-14T06:21:33.492Z,9.43
2023-08-14T06:31:37.184Z,6.45
2023-08-14T06:36:39.140Z,5.40
2023-08-14T06:41:41.098Z,5.45
2023-08-14T06:46:43.253Z,5.40
2023-08-14T06:51:45.342Z,5.70
2023-08-14T06:56:47.332Z,6.95
2023-08-14T07:01:49.235Z,6.05
2023-08-14T07:06:51.232Z,4.70
2023-08-14T07:11:53.366Z,4.97
2023-08-14T07:16:55.314Z,6.10
2023-08-14T07:21:57.220Z,6.35
2023-08-14T07:27:00.341Z,5.38
2023-08-14T07:32:02.362Z,6.65
2023-08-14T07:37:04.360Z,7.03
2023-08-14T07:42:06.343Z,6.32
2023-08-14T07:47:08.295Z,5.68
2023-08-14T07:52:10.255Z,5.85
2023-08-14T07:57:12.178Z,5.53
2023-08-14T08:02:14.164Z,6.72
2023-08-14T08:07:16.723Z,5.65
2023-08-14T08:12:19.224Z,6.25
2023-08-14T08:17:21.478Z,4.95
2023-08-14T08:22:23.430Z,5.63
2023-08-14T08:27:25.364Z,4.90
2023-08-14T08:32:29.991Z,5.05
2023-08-14T08:37:33.374Z,6.30
2023-08-14T08:42:35.362Z,4.65
2023-08-14T08:47:39.453Z,5.40
2023-08-14T08:52:41.411Z,4.70
2023-08-14T08:57:43.345Z,4.88
2023-08-14T09:02:47.421Z,5.85
2023-08-14T09:07:49.551Z,4.28
2023-08-14T09:12:51.631Z,4.65
2023-08-14T09:17:53.749Z,4.80
2023-08-14T09:22:59.550Z,4.80
2023-08-14T09:28:01.436Z,4.93
2023-08-14T09:33:03.811Z,5.00
2023-08-14T09:38:06.134Z,5.03
2023-08-14T09:43:08.079Z,5.10
2023-08-14T09:48:10.194Z,5.28
2023-08-14T09:53:12.210Z,5.22
2023-08-14T09:58:14.145Z,4.68
2023-08-14T10:03:16.152Z,5.57
2023-08-14T10:08:18.207Z,7.10
2023-08-14T10:13:20.198Z,5.97
2023-08-14T10:18:23.820Z,7.07
2023-08-14T10:23:25.754Z,5.43
2023-08-14T10:28:27.671Z,6.68
2023-08-14T10:33:29.596Z,6.97
2023-08-14T10:38:44.730Z,5.65
2023-08-14T10:43:50.265Z,5.75
2023-08-14T10:48:52.877Z,6.70
2023-08-14T10:54:03.382Z,7.05
2023-08-14T10:59:05.338Z,8.60
2023-08-14T11:04:07.431Z,6.13
2023-08-14T11:09:09.429Z,6.22
2023-08-14T11:14:11.443Z,6.65
2023-08-14T11:19:13.403Z,6.82
2023-08-14T11:24:15.334Z,6.45
2023-08-14T11:29:17.217Z,6.53
2023-08-14T11:34:20.134Z,7.38
2023-08-14T11:39:22.065Z,8.32
2023-08-14T11:44:23.971Z,7.50
2023-08-14T11:49:25.935Z,7.25
2023-08-14T11:54:27.856Z,7.90
2023-08-14T11:59:29.823Z,8.80
2023-08-14T12:04:31.721Z,8.60
2023-08-14T12:09:33.683Z,6.55
2023-08-14T12:14:54.140Z,6.55
2023-08-14T12:19:56.713Z,7.35
2023-08-14T12:24:58.671Z,7.35
2023-08-14T12:30:00.627Z,6.75
2023-08-14T12:35:02.645Z,6.97
2023-08-14T12:40:06.075Z,7.40
2023-08-14T12:45:08.324Z,9.48
2023-08-14T12:50:10.508Z,8.68
2023-08-14T12:55:18.448Z,9.18
2023-08-14T13:00:21.163Z,7.35
2023-08-14T13:05:23.184Z,9.57
2023-08-14T13:10:25.117Z,7.80
2023-08-14T13:15:27.080Z,8.02
2023-08-14T13:20:29.087Z,8.50
2023-08-14T13:25:31.101Z,7.90
2023-08-14T13:30:33.081Z,9.40
2023-08-14T13:35:35.072Z,6.45
2023-08-14T13:40:37.064Z,6.93
2023-08-14T13:45:38.958Z,6.78
2023-08-14T13:50:42.911Z,8.07
2023-08-14T13:55:45.000Z,6.43
2023-08-14T14:00:46.902Z,6.82
2023-08-14T14:05:48.860Z,6.60
2023-08-14T14:10:50.766Z,7.15
2023-08-14T14:15:52.661Z,6.80
2023-08-14T14:20:54.512Z,8.68
2023-08-14T14:25:56.432Z,8.75
2023-08-14T14:30:58.405Z,7.68
2023-08-14T14:36:00.301Z,8.20
2023-08-14T14:41:02.186Z,8.95
2023-08-14T14:46:05.393Z,7.18
2023-08-14T14:51:08.610Z,9.50
2023-08-14T14:56:10.460Z,11.48
2023-08-14T15:01:12.565Z,8.13
2023-08-14T15:06:14.489Z,11.32
2023-08-14T15:11:16.430Z,12.38
2023-08-14T15:16:18.377Z,8.50
2023-08-14T15:21:20.332Z,8.63
2023-08-14T15:26:22.215Z,7.32
2023-08-14T15:31:24.175Z,8.38
2023-08-14T15:36:26.080Z,8.93
2023-08-14T15:41:27.966Z,7.95
2023-08-14T15:46:29.881Z,7.57
2023-08-14T15:51:31.752Z,8.15
2023-08-14T15:56:33.734Z,8.18
2023-08-14T16:01:35.638Z,7.68
2023-08-14T16:06:37.529Z,9.93
2023-08-14T16:11:39.444Z,7.35
2023-08-14T16:16:41.383Z,7.88
2023-08-14T16:21:43.355Z,9.95
2023-08-14T16:26:45.259Z,12.38
2023-08-14T16:31:47.224Z,8.57
2023-08-14T16:36:49.137Z,9.50
2023-08-14T16:41:50.951Z,11.13
2023-08-14T16:46:52.855Z,8.98
2023-08-14T16:51:54.855Z,9.98
2023-08-14T16:56:56.734Z,8.63
2023-08-14T17:01:58.616Z,10.57
2023-08-14T17:07:00.554Z,10.18
2023-08-14T17:12:02.417Z,9.18
2023-08-14T17:17:04.433Z,9.40
2023-08-14T17:22:06.328Z,9.70
2023-08-14T17:27:08.285Z,10.07
2023-08-14T17:32:11.636Z,16.05
2023-08-14T17:37:13.590Z,10.48
2023-08-14T17:42:15.581Z,12.82
2023-08-14T17:47:18.031Z,10.20
2023-08-14T17:52:20.183Z,10.40
2023-08-14T17:57:22.761Z,14.75
2023-08-14T18:02:25.081Z,12.45
2023-08-14T18:07:27.062Z,13.00
2023-08-14T18:12:28.969Z,13.40
2023-08-14T18:17:30.973Z,10.75
2023-08-14T18:22:33.115Z,12.48
2023-08-14T18:27:35.016Z,11.00
2023-08-14T18:32:36.914Z,11.38
2023-08-14T18:37:38.819Z,10.27
2023-08-14T18:42:40.776Z,10.43
2023-08-14T18:47:42.693Z,9.65
2023-08-14T18:52:44.706Z,9.98
2023-08-14T18:57:46.678Z,9.85
2023-08-14T19:02:48.748Z,9.93
2023-08-14T19:07:50.686Z,10.88
2023-08-14T19:17:54.280Z,9.18
2023-08-14T19:22:56.168Z,8.15
2023-08-14T19:28:00.186Z,9.57
2023-08-14T19:33:02.379Z,10.65
2023-08-14T19:38:04.635Z,10.07
2023-08-14T19:43:06.511Z,7.90
2023-08-14T19:48:08.417Z,7.93
2023-08-14T19:53:10.277Z,8.02
2023-08-14T19:58:12.226Z,7.80
2023-08-14T20:03:14.196Z,9.98
2023-08-14T20:08:16.377Z,9.40
2023-08-14T20:13:18.417Z,7.65
2023-08-14T20:18:20.308Z,9.25
2023-08-14T20:23:22.213Z,13.00
2023-08-14T20:28:24.053Z,7.97
2023-08-14T20:38:27.656Z,6.88
2023-08-14T20:43:29.988Z,6.82
2023-08-14T20:48:31.882Z,7.53
2023-08-14T20:58:35.519Z,6.13
2023-08-14T21:03:37.441Z,14.25
2023-08-14T21:08:39.487Z,8.73
2023-08-14T21:13:41.313Z,8.05
2023-08-14T21:23:45.780Z,8.63
2023-08-14T21:33:49.366Z,8.02
2023-08-14T21:43:52.818Z,11.40
2023-08-14T21:53:56.386Z,6.55
2023-08-14T22:03:59.999Z,9.30
2023-08-14T22:09:01.935Z,6.70
2023-08-14T22:19:05.680Z,8.32
2023-08-14T22:29:09.404Z,6.15
2023-08-14T22:39:12.918Z,7.22
2023-08-14T22:49:16.523Z,7.45
2023-08-14T22:54:18.407Z,8.05
2023-08-14T23:04:21.933Z,5.50
2023-08-14T23:14:25.546Z,6.20
2023-08-14T23:29:32.261Z,7.28
2023-08-14T23:39:35.762Z,5.78
2023-08-14T23:49:39.823Z,7.93
2023-08-14T23:59:43.898Z,8.40
